Happy Valentine's Day! 

Flight Track Log - Related Links

Times and Time Zones

All times are in EDT time to prevent confusion due to time zone crossing. See the ASQ3263 flight status page for this flight to view local times or setup timezone preferences in your user account.


Time Position Orientation Groundspeed Altitude Reporting Facility
EDT Latitude Longitude Course Direction KTS MPH feet Rate Location/Type
Wed 10:19:11 PM 29.9622 -95.3483 72° East 174 200 800  Level Houston Center
Wed 10:19:53 PM 29.9433 -95.3722 228° Southwest 194 223 2,300 1,748 Climbing Houston Center
Wed 10:20:54 PM 29.9953 -95.3661 North 239 275 3,800 1,610 Climbing Houston Center
Wed 10:21:15 PM 30.0086 -95.3486 49° Northeast 241 277 4,500 2,945 Climbing Houston Center
Wed 10:21:49 PM 30.0342 -95.3106 52° Northeast 250 288 6,500 2,852 Climbing Houston Center
Wed 10:22:16 PM 30.0500 -95.2839 56° Northeast 246 283 7,400 2,149 Climbing Houston Center
Wed 10:22:56 PM 30.0928 -95.2383 43° Northeast 279 321 8,900 1,475 Climbing Houston Center
Wed 10:23:00 PM 30.1000 -94.9257 72° East  Level FlightAware Approximate
Wed 10:23:17 PM 30.1075 -95.2233 41° Northeast 273 314 8,900  Level Houston Center
Wed 10:23:50 PM 30.1417 -95.1769 50° Northeast 301 346 9,400 787 Climbing Houston Center
Wed 10:24:00 PM 30.1234 -94.8438 72° East  Level FlightAware Approximate
Wed 10:24:18 PM 30.1550 -95.1469 63° Northeast 297 342 9,700  Level Houston Center
Wed 10:24:51 PM 30.1744 -95.0786 72° East 361 415 10,100 295 Climbing Houston Center
Wed 10:25:19 PM 30.1744 -95.0389 90° East 358 412 10,000  Descending Houston Center
Wed 10:25:40 PM 30.1739 -94.9819 91° East 382 440 10,100  Climbing Houston Center
Wed 10:26:20 PM 30.1725 -94.9139 91° East 385 443 10,000  Descending Houston Center
Wed 10:26:47 PM 30.1711 -94.8419 91° East 387 445 10,100  Climbing Houston Center
Wed 10:27:21 PM 30.1717 -94.7900 89° East 385 443 10,000  Descending Houston Center
Wed 10:27:41 PM 30.1706 -94.7261 91° East 395 455 10,100  Climbing Houston Center
Wed 10:28:22 PM 30.1697 -94.6614 91° East 395 455 10,000  Descending Houston Center
Wed 10:28:48 PM 30.1694 -94.5836 90° East 401 461 10,100  Climbing Houston Center
Wed 10:29:23 PM 30.1689 -94.5328 91° East 397 457 10,000  Descending Houston Center
Wed 10:29:43 PM 30.1686 -94.4675 90° East 401 461 10,100 -98 Climbing Houston Center
Wed 10:30:24 PM 30.1675 -94.3928 91° East 398 458 9,900 -98 Descending Houston Center
Wed 10:30:44 PM 30.1664 -94.3397 91° East 392 451 10,000 98 Climbing Houston Center
Wed 10:31:25 PM 30.1650 -94.2678 91° East 396 456 10,000  Level Houston Center
Wed 10:31:50 PM 30.1633 -94.2022 92° East 392 451 10,000 -98 Level Houston Center
Wed 10:32:26 PM 30.1628 -94.1414 91° East 394 453 9,900 -62 Descending Houston Center
Wed 10:33:27 PM 30.1606 -94.0172 91° East 394 453 9,900 75 Level Houston Center
Wed 10:33:46 PM 30.1597 -93.9583 91° East 393 452 10,000 98 Climbing Houston Center
Wed 10:34:28 PM 30.1586 -93.8908 91° East 394 453 10,000  Level Houston Center
Wed 10:35:29 PM 30.1564 -93.7417 91° East 393 452 10,000 -49 Level Houston Center
Wed 10:36:31 PM 30.1522 -93.6253 92° East 373 429 9,900 -585 Descending Houston Center
Wed 10:37:32 PM 30.1317 -93.5286 104° East 315 362 8,800 -1,475 Descending Houston Center
Wed 10:38:33 PM 30.1053 -93.4361 108° East 309 356 6,900 -1,525 Descending Houston Center
Wed 10:39:34 PM 30.0797 -93.3483 109° East 294 338 5,700 -1,230 Descending Houston Center
Wed 10:40:35 PM 30.0392 -93.2856 127° Southeast 265 305 4,400 -1,377 Descending Houston Center
Wed 10:41:36 PM 29.9850 -93.2389 143° Southeast 253 291 2,900 -1,230 Descending Houston Center
Wed 10:42:37 PM 30.0119 -93.1794 62° Northeast 229 264 1,900 -934 Descending Houston Center
Wed 10:43:38 PM 30.0633 -93.1936 347° North 176 203 1,000 -738 Descending Houston Center
Wed 10:44:39 PM 30.0922 -93.2078 337° Northwest 139 160 400 -590 Descending Houston Center

Login

Don't have an account? Register now (free) for customized features, flight alerts, and more!